ASN logo
ASN Wikibase Occurrence # 220984
Last updated: 14 October 2021
This information is added by users of ASN. Neither ASN nor the Flight Safety Foundation are responsible for the completeness or correctness of this information. If you feel this information is incomplete or incorrect, you can submit corrected information.

Date:21-JAN-2019
Time:c. 17:50 LT
Type:Silhouette image of generic B738 model; specific model in this crash may look slightly different
Boeing 737-8LJ (WL)
Owner/operator:Aeroflot
Registration: VP-BNC
MSN: 41234/6543
Fatalities:Fatalities: 0 / Occupants: 83
Other fatalities:0
Aircraft damage: None
Location:Moskva-Sheremetyevo Airport (SVO/UUEE) -   Russia
Phase: Landing
Nature:Passenger - Scheduled
Departure airport:Astana International Airport (TSE/UACC)
Destination airport:Moskva-Sheremetyevo Airport (SVO/UUEE)
Narrative:
Aeroflot flight SU1963, a Boeing 737-800, suffered a runway excursion after landing at Moscow's Sheremetyevo Airport in Russia. No injuries were reported.
The aircraft landed on runway 24L. Preliminary information suggests that the nose landing gear slid off the side of the runway or taxiway as the aircraft attempted to vacate the runway. The nose landing gear rolled 1,5 meters past the runway end.

Weather about the time of the incident (1450Z):
UUEE 211500Z 29004MPS 7000 -SHSN BKN040CB M10/M12 Q1008 R24L/590330 R24C/450336 TEMPO 0900 +SHSN
UUEE 211430Z 29004MPS 3600 -SHSN BKN044CB M10/M11 Q1008 R24L/590330 R24C/590330 TEMPO 0900 +SHSN

Sources:

https://tvzvezda.ru/news/vstrane_i_mire/content/201901211941-v1xd.htm
https://russian.rt.com/russia/news/595006-sheremetevo-samolyot-vpp
https://www.flightradar24.com/data/flights/su1963#1f3f5360


Images:

Photo of VP-BNC courtesy AirHistory.net


London - Heathrow (EGLL / LHR)
14 December 2019; (c) John Smitherman

Revision history:

Date/timeContributorUpdates
21-Jan-2019 17:01 harro Added
21-Jan-2019 17:17 harro Updated [Time, Aircraft type, Registration, Cn, Operator, Departure airport, Source, Narrative]
21-Jan-2019 19:26 harro Updated [Cn]

Corrections or additions? ... Edit this accident description